sensor_id;sensor_type;location;lat;lon;timestamp;pressure;altitude;pressure_sealevel;temperature;humidity
54816;BME280;40715;55.752;37.884;2023-07-02T00:00:10;97345.00;;;31.42;30.69
54816;BME280;40715;55.752;37.884;2023-07-02T00:02:38;97354.84;;;31.43;30.41
54816;BME280;40715;55.752;37.884;2023-07-02T00:05:06;97350.66;;;31.40;30.49
54816;BME280;40715;55.752;37.884;2023-07-02T00:07:34;97345.47;;;31.39;30.31
54816;BME280;40715;55.752;37.884;2023-07-02T00:10:03;97348.63;;;31.36;30.29
54816;BME280;40715;55.752;37.884;2023-07-02T00:12:31;97343.41;;;31.34;30.65
54816;BME280;40715;55.752;37.884;2023-07-02T00:14:58;97336.06;;;31.35;30.58
54816;BME280;40715;55.752;37.884;2023-07-02T00:17:25;97333.34;;;31.35;30.79
54816;BME280;40715;55.752;37.884;2023-07-02T00:19:52;97336.13;;;31.28;30.69
54816;BME280;40715;55.752;37.884;2023-07-02T00:22:22;97341.13;;;31.31;30.93
54816;BME280;40715;55.752;37.884;2023-07-02T00:24:49;97337.63;;;31.24;30.58
54816;BME280;40715;55.752;37.884;2023-07-02T00:27:22;97346.19;;;31.27;30.90
54816;BME280;40715;55.752;37.884;2023-07-02T00:29:49;97342.84;;;31.25;30.54
54816;BME280;40715;55.752;37.884;2023-07-02T00:32:16;97346.84;;;31.23;30.91
54816;BME280;40715;55.752;37.884;2023-07-02T00:34:43;97345.78;;;31.24;30.70
54816;BME280;40715;55.752;37.884;2023-07-02T00:37:11;97353.94;;;31.24;30.91
54816;BME280;40715;55.752;37.884;2023-07-02T00:39:38;97356.44;;;31.25;30.79
54816;BME280;40715;55.752;37.884;2023-07-02T00:42:05;97347.69;;;31.23;31.03
54816;BME280;40715;55.752;37.884;2023-07-02T00:44:32;97353.94;;;31.24;30.69
54816;BME280;40715;55.752;37.884;2023-07-02T00:46:59;97350.63;;;31.22;30.95
54816;BME280;40715;55.752;37.884;2023-07-02T00:49:26;97354.16;;;31.22;30.95
54816;BME280;40715;55.752;37.884;2023-07-02T00:51:54;97356.28;;;31.20;31.00
54816;BME280;40715;55.752;37.884;2023-07-02T00:54:21;97355.25;;;31.21;31.10
54816;BME280;40715;55.752;37.884;2023-07-02T00:56:49;97352.53;;;31.21;31.13
54816;BME280;40715;55.752;37.884;2023-07-02T00:59:17;97361.72;;;31.20;31.16
54816;BME280;40715;55.752;37.884;2023-07-02T01:01:44;97356.56;;;31.12;30.97
54816;BME280;40715;55.752;37.884;2023-07-02T01:04:19;97349.66;;;31.09;31.23
54816;BME280;40715;55.752;37.884;2023-07-02T01:06:46;97355.56;;;31.06;31.55
54816;BME280;40715;55.752;37.884;2023-07-02T01:09:13;97368.34;;;31.06;31.48
54816;BME280;40715;55.752;37.884;2023-07-02T01:11:44;97365.84;;;31.04;31.65
54816;BME280;40715;55.752;37.884;2023-07-02T01:14:25;97360.72;;;31.14;31.22
54816;BME280;40715;55.752;37.884;2023-07-02T01:16:54;97362.72;;;31.01;31.64
54816;BME280;40715;55.752;37.884;2023-07-02T01:19:53;97368.22;;;31.19;31.27
54816;BME280;40715;55.752;37.884;2023-07-02T01:22:23;97365.63;;;30.99;31.32
54816;BME280;40715;55.752;37.884;2023-07-02T01:24:52;97375.28;;;30.95;31.67
54816;BME280;40715;55.752;37.884;2023-07-02T01:27:20;97370.66;;;30.95;31.66
54816;BME280;40715;55.752;37.884;2023-07-02T01:29:51;97370.47;;;30.97;31.87
54816;BME280;40715;55.752;37.884;2023-07-02T01:32:19;97368.78;;;30.96;31.88
54816;BME280;40715;55.752;37.884;2023-07-02T01:34:47;97374.22;;;30.96;31.80
54816;BME280;40715;55.752;37.884;2023-07-02T01:37:16;97378.00;;;30.95;31.60
54816;BME280;40715;55.752;37.884;2023-07-02T01:39:46;97356.47;;;30.93;31.66
54816;BME280;40715;55.752;37.884;2023-07-02T01:42:15;97364.63;;;30.93;31.62
54816;BME280;40715;55.752;37.884;2023-07-02T01:44:44;97374.44;;;30.94;32.06
54816;BME280;40715;55.752;37.884;2023-07-02T01:47:12;97376.09;;;30.95;31.71
54816;BME280;40715;55.752;37.884;2023-07-02T01:49:39;97366.50;;;30.93;31.64
54816;BME280;40715;55.752;37.884;2023-07-02T01:52:06;97370.28;;;30.92;31.86
54816;BME280;40715;55.752;37.884;2023-07-02T01:54:34;97370.72;;;30.89;32.03
54816;BME280;40715;55.752;37.884;2023-07-02T01:57:04;97369.88;;;30.88;31.91
54816;BME280;40715;55.752;37.884;2023-07-02T01:59:31;97375.09;;;30.90;32.10
54816;BME280;40715;55.752;37.884;2023-07-02T02:01:58;97379.91;;;30.88;31.84
54816;BME280;40715;55.752;37.884;2023-07-02T02:04:26;97384.09;;;30.90;31.76
54816;BME280;40715;55.752;37.884;2023-07-02T02:06:54;97377.63;;;30.91;32.13
54816;BME280;40715;55.752;37.884;2023-07-02T02:09:21;97379.22;;;30.99;31.99
54816;BME280;40715;55.752;37.884;2023-07-02T02:11:49;97389.50;;;30.97;32.27
54816;BME280;40715;55.752;37.884;2023-07-02T02:14:18;97378.63;;;30.97;32.00
54816;BME280;40715;55.752;37.884;2023-07-02T02:16:45;97382.97;;;30.98;32.13
54816;BME280;40715;55.752;37.884;2023-07-02T02:19:13;97381.75;;;31.01;32.12
54816;BME280;40715;55.752;37.884;2023-07-02T02:21:42;97379.03;;;31.01;31.80
54816;BME280;40715;55.752;37.884;2023-07-02T02:24:11;97386.31;;;31.00;31.92
54816;BME280;40715;55.752;37.884;2023-07-02T02:26:38;97378.81;;;31.02;31.95
54816;BME280;40715;55.752;37.884;2023-07-02T02:29:05;97386.97;;;31.02;31.85
54816;BME280;40715;55.752;37.884;2023-07-02T02:31:32;97383.41;;;31.02;32.15
54816;BME280;40715;55.752;37.884;2023-07-02T02:34:00;97383.19;;;31.03;32.17
54816;BME280;40715;55.752;37.884;2023-07-02T02:36:27;97386.75;;;31.04;32.17
54816;BME280;40715;55.752;37.884;2023-07-02T02:38:54;97383.78;;;31.05;32.11
54816;BME280;40715;55.752;37.884;2023-07-02T02:41:22;97385.69;;;31.05;31.90
54816;BME280;40715;55.752;37.884;2023-07-02T02:43:49;97376.72;;;31.04;32.12
54816;BME280;40715;55.752;37.884;2023-07-02T02:46:20;97374.38;;;31.08;32.22
54816;BME280;40715;55.752;37.884;2023-07-02T02:48:49;97383.56;;;31.07;32.13
54816;BME280;40715;55.752;37.884;2023-07-02T02:51:16;97392.34;;;31.09;32.16
54816;BME280;40715;55.752;37.884;2023-07-02T02:53:43;97389.41;;;31.10;32.00
54816;BME280;40715;55.752;37.884;2023-07-02T02:56:10;97390.47;;;31.09;32.22
54816;BME280;40715;55.752;37.884;2023-07-02T02:58:37;97392.97;;;31.11;32.18
54816;BME280;40715;55.752;37.884;2023-07-02T03:01:04;97388.97;;;31.13;31.97
54816;BME280;40715;55.752;37.884;2023-07-02T03:03:41;97394.63;;;31.12;32.33
54816;BME280;40715;55.752;37.884;2023-07-02T03:06:15;97388.38;;;31.11;32.31
54816;BME280;40715;55.752;37.884;2023-07-02T03:08:43;97397.13;;;31.13;32.28
54816;BME280;40715;55.752;37.884;2023-07-02T03:11:12;97396.09;;;31.14;32.04
54816;BME280;40715;55.752;37.884;2023-07-02T03:13:41;97403.19;;;31.15;31.92
54816;BME280;40715;55.752;37.884;2023-07-02T03:16:08;97392.69;;;31.19;31.80
54816;BME280;40715;55.752;37.884;2023-07-02T03:18:35;97398.75;;;31.21;31.88
54816;BME280;40715;55.752;37.884;2023-07-02T03:21:02;97417.56;;;31.23;31.94
54816;BME280;40715;55.752;37.884;2023-07-02T03:23:29;97406.25;;;31.26;31.84
54816;BME280;40715;55.752;37.884;2023-07-02T03:25:57;97411.69;;;31.26;31.79
54816;BME280;40715;55.752;37.884;2023-07-02T03:28:24;97402.03;;;31.30;32.22
54816;BME280;40715;55.752;37.884;2023-07-02T03:30:51;97400.38;;;31.29;31.92
54816;BME280;40715;55.752;37.884;2023-07-02T03:33:18;97407.69;;;31.28;31.99
54816;BME280;40715;55.752;37.884;2023-07-02T03:35:45;97427.13;;;31.32;32.13
54816;BME280;40715;55.752;37.884;2023-07-02T03:38:12;97422.09;;;31.36;32.32
54816;BME280;40715;55.752;37.884;2023-07-02T03:40:39;97418.28;;;31.37;32.19
54816;BME280;40715;55.752;37.884;2023-07-02T03:43:06;97420.97;;;31.43;31.89
54816;BME280;40715;55.752;37.884;2023-07-02T03:45:33;97420.50;;;31.46;32.13
54816;BME280;40715;55.752;37.884;2023-07-02T03:48:00;97428.22;;;31.49;31.73
54816;BME280;40715;55.752;37.884;2023-07-02T03:50:27;97441.19;;;31.54;32.04
54816;BME280;40715;55.752;37.884;2023-07-02T03:52:54;97436.34;;;31.56;31.81
54816;BME280;40715;55.752;37.884;2023-07-02T03:55:21;97441.78;;;31.56;32.07
54816;BME280;40715;55.752;37.884;2023-07-02T03:57:48;97432.38;;;31.59;31.66
54816;BME280;40715;55.752;37.884;2023-07-02T04:00:15;97439.50;;;31.60;31.60
54816;BME280;40715;55.752;37.884;2023-07-02T04:02:43;97444.72;;;31.61;31.60
54816;BME280;40715;55.752;37.884;2023-07-02T04:05:10;97439.28;;;31.61;31.43
54816;BME280;40715;55.752;37.884;2023-07-02T04:07:37;97446.22;;;31.57;31.82
54816;BME280;40715;55.752;37.884;2023-07-02T04:10:05;97449.75;;;31.58;31.36
54816;BME280;40715;55.752;37.884;2023-07-02T04:12:32;97455.81;;;31.60;31.82
54816;BME280;40715;55.752;37.884;2023-07-02T04:14:59;97453.88;;;31.67;31.35
54816;BME280;40715;55.752;37.884;2023-07-02T04:17:26;97459.91;;;31.69;31.41
54816;BME280;40715;55.752;37.884;2023-07-02T04:19:54;97458.47;;;31.66;31.54
54816;BME280;40715;55.752;37.884;2023-07-02T04:22:21;97460.97;;;31.68;31.21
54816;BME280;40715;55.752;37.884;2023-07-02T04:24:49;97463.69;;;31.68;31.45
54816;BME280;40715;55.752;37.884;2023-07-02T04:27:16;97473.53;;;31.69;31.37
54816;BME280;40715;55.752;37.884;2023-07-02T04:30:03;97464.25;;;31.77;31.47
54816;BME280;40715;55.752;37.884;2023-07-02T04:32:32;97468.47;;;31.73;31.51
54816;BME280;40715;55.752;37.884;2023-07-02T04:34:59;97469.06;;;31.75;31.32
54816;BME280;40715;55.752;37.884;2023-07-02T04:37:28;97477.78;;;31.83;31.40
54816;BME280;40715;55.752;37.884;2023-07-02T04:39:55;97463.06;;;31.91;31.57
54816;BME280;40715;55.752;37.884;2023-07-02T04:42:22;97465.47;;;31.99;31.31
54816;BME280;40715;55.752;37.884;2023-07-02T04:44:54;97463.09;;;32.10;31.48
54816;BME280;40715;55.752;37.884;2023-07-02T04:47:22;97466.63;;;32.17;31.12
54816;BME280;40715;55.752;37.884;2023-07-02T04:49:49;97476.59;;;32.23;31.46
54816;BME280;40715;55.752;37.884;2023-07-02T04:52:16;97475.09;;;32.27;31.17
54816;BME280;40715;55.752;37.884;2023-07-02T04:54:43;97490.06;;;32.37;31.14
54816;BME280;40715;55.752;37.884;2023-07-02T04:57:10;97487.03;;;32.45;31.34
54816;BME280;40715;55.752;37.884;2023-07-02T04:59:37;97486.03;;;32.58;31.03
54816;BME280;40715;55.752;37.884;2023-07-02T05:02:04;97476.75;;;32.65;30.51
54816;BME280;40715;55.752;37.884;2023-07-02T05:04:31;97484.50;;;32.68;30.61
54816;BME280;40715;55.752;37.884;2023-07-02T05:07:00;97485.09;;;32.71;30.80
54816;BME280;40715;55.752;37.884;2023-07-02T05:09:27;97479.09;;;32.80;30.45
54816;BME280;40715;55.752;37.884;2023-07-02T05:11:54;97479.00;;;32.87;30.70
54816;BME280;40715;55.752;37.884;2023-07-02T05:14:21;97480.97;;;32.98;30.21
54816;BME280;40715;55.752;37.884;2023-07-02T05:16:51;97483.38;;;33.07;30.05
54816;BME280;40715;55.752;37.884;2023-07-02T05:19:18;97475.69;;;33.15;30.01
54816;BME280;40715;55.752;37.884;2023-07-02T05:21:45;97477.03;;;33.25;30.11
54816;BME280;40715;55.752;37.884;2023-07-02T05:24:12;97470.19;;;33.34;29.86
54816;BME280;40715;55.752;37.884;2023-07-02T05:26:40;97467.47;;;33.46;29.91
54816;BME280;40715;55.752;37.884;2023-07-02T05:29:07;97471.31;;;33.57;29.67
54816;BME280;40715;55.752;37.884;2023-07-02T05:31:34;97480.56;;;33.67;29.45
54816;BME280;40715;55.752;37.884;2023-07-02T05:34:01;97468.91;;;33.72;29.54
54816;BME280;40715;55.752;37.884;2023-07-02T05:36:28;97483.13;;;33.81;29.48
54816;BME280;40715;55.752;37.884;2023-07-02T05:38:55;97473.16;;;33.86;29.33
54816;BME280;40715;55.752;37.884;2023-07-02T05:41:22;97474.69;;;33.94;29.17
54816;BME280;40715;55.752;37.884;2023-07-02T05:43:49;97475.38;;;34.01;29.21
54816;BME280;40715;55.752;37.884;2023-07-02T05:46:16;97476.56;;;34.05;28.89
54816;BME280;40715;55.752;37.884;2023-07-02T05:48:44;97480.75;;;34.08;28.72
54816;BME280;40715;55.752;37.884;2023-07-02T05:51:11;97484.75;;;34.17;28.98
54816;BME280;40715;55.752;37.884;2023-07-02T05:53:38;97481.91;;;34.24;28.75
54816;BME280;40715;55.752;37.884;2023-07-02T05:56:05;97491.41;;;34.33;28.66
54816;BME280;40715;55.752;37.884;2023-07-02T05:58:32;97487.75;;;34.39;28.43
54816;BME280;40715;55.752;37.884;2023-07-02T06:01:13;97497.22;;;34.49;28.40
54816;BME280;40715;55.752;37.884;2023-07-02T06:03:42;97493.53;;;34.55;28.31
54816;BME280;40715;55.752;37.884;2023-07-02T06:06:11;97491.75;;;34.61;28.46
54816;BME280;40715;55.752;37.884;2023-07-02T06:08:38;97491.34;;;34.69;28.23
54816;BME280;40715;55.752;37.884;2023-07-02T06:11:05;97500.47;;;34.74;28.12
54816;BME280;40715;55.752;37.884;2023-07-02T06:13:32;97498.94;;;34.79;28.08
54816;BME280;40715;55.752;37.884;2023-07-02T06:15:59;97500.50;;;34.86;27.95
54816;BME280;40715;55.752;37.884;2023-07-02T06:18:26;97497.84;;;34.91;27.85
54816;BME280;40715;55.752;37.884;2023-07-02T06:20:54;97488.06;;;34.96;27.82
54816;BME280;40715;55.752;37.884;2023-07-02T06:23:21;97495.34;;;35.02;27.88
54816;BME280;40715;55.752;37.884;2023-07-02T06:25:48;97492.44;;;35.08;27.53
54816;BME280;40715;55.752;37.884;2023-07-02T06:28:15;97498.34;;;35.17;27.43
54816;BME280;40715;55.752;37.884;2023-07-02T06:30:42;97507.81;;;35.26;27.29
54816;BME280;40715;55.752;37.884;2023-07-02T06:33:09;97508.78;;;35.32;27.24
54816;BME280;40715;55.752;37.884;2023-07-02T06:35:36;97504.22;;;35.38;27.37
54816;BME280;40715;55.752;37.884;2023-07-02T06:38:03;97506.47;;;35.41;26.99
54816;BME280;40715;55.752;37.884;2023-07-02T06:40:30;97502.41;;;35.43;26.98
54816;BME280;40715;55.752;37.884;2023-07-02T06:42:58;97498.66;;;35.50;27.03
54816;BME280;40715;55.752;37.884;2023-07-02T06:45:24;97505.31;;;35.54;26.81
54816;BME280;40715;55.752;37.884;2023-07-02T06:47:51;97517.69;;;35.56;26.89
54816;BME280;40715;55.752;37.884;2023-07-02T06:50:19;97498.28;;;35.58;26.74
54816;BME280;40715;55.752;37.884;2023-07-02T06:52:46;97507.31;;;35.58;26.45
54816;BME280;40715;55.752;37.884;2023-07-02T06:55:13;97511.72;;;35.59;26.50
54816;BME280;40715;55.752;37.884;2023-07-02T06:57:44;97513.69;;;35.64;26.60
54816;BME280;40715;55.752;37.884;2023-07-02T07:00:13;97510.13;;;35.64;26.25
54816;BME280;40715;55.752;37.884;2023-07-02T07:02:41;97506.81;;;35.62;26.30
54816;BME280;40715;55.752;37.884;2023-07-02T07:05:08;97508.47;;;35.63;26.23
54816;BME280;40715;55.752;37.884;2023-07-02T07:07:36;97513.44;;;35.66;26.37
54816;BME280;40715;55.752;37.884;2023-07-02T07:10:04;97514.31;;;35.66;26.21
54816;BME280;40715;55.752;37.884;2023-07-02T07:12:31;97514.31;;;35.66;25.87
54816;BME280;40715;55.752;37.884;2023-07-02T07:14:59;97514.03;;;35.68;25.92
54816;BME280;40715;55.752;37.884;2023-07-02T07:17:26;97509.75;;;35.72;25.70
54816;BME280;40715;55.752;37.884;2023-07-02T07:19:54;97505.44;;;35.76;25.73
54816;BME280;40715;55.752;37.884;2023-07-02T07:22:21;97508.38;;;35.74;26.13
54816;BME280;40715;55.752;37.884;2023-07-02T07:24:48;97512.78;;;35.75;25.59
54816;BME280;40715;55.752;37.884;2023-07-02T07:27:15;97511.31;;;35.68;25.60
54816;BME280;40715;55.752;37.884;2023-07-02T07:29:42;97517.28;;;35.65;25.78
54816;BME280;40715;55.752;37.884;2023-07-02T07:32:09;97524.09;;;35.62;25.64
54816;BME280;40715;55.752;37.884;2023-07-02T07:34:36;97524.75;;;35.69;25.75
54816;BME280;40715;55.752;37.884;2023-07-02T07:37:05;97522.19;;;35.80;25.58
54816;BME280;40715;55.752;37.884;2023-07-02T07:39:32;97528.03;;;35.83;25.50
54816;BME280;40715;55.752;37.884;2023-07-02T07:41:59;97526.50;;;35.75;25.16
54816;BME280;40715;55.752;37.884;2023-07-02T07:44:26;97529.72;;;35.72;25.10
54816;BME280;40715;55.752;37.884;2023-07-02T07:46:56;97533.28;;;35.73;25.26
54816;BME280;40715;55.752;37.884;2023-07-02T07:49:23;97527.34;;;35.76;25.60
54816;BME280;40715;55.752;37.884;2023-07-02T07:51:50;97533.50;;;35.83;25.24
54816;BME280;40715;55.752;37.884;2023-07-02T07:54:18;97531.44;;;35.90;25.61
54816;BME280;40715;55.752;37.884;2023-07-02T07:56:46;97528.50;;;35.97;25.87
54816;BME280;40715;55.752;37.884;2023-07-02T07:59:13;97520.38;;;36.02;25.44
54816;BME280;40715;55.752;37.884;2023-07-02T08:01:41;97527.59;;;36.08;25.30
54816;BME280;40715;55.752;37.884;2023-07-02T08:04:08;97522.94;;;36.09;24.80
54816;BME280;40715;55.752;37.884;2023-07-02T08:06:38;97535.16;;;36.01;24.85
54816;BME280;40715;55.752;37.884;2023-07-02T08:09:05;97523.88;;;35.98;25.13
54816;BME280;40715;55.752;37.884;2023-07-02T08:11:32;97524.13;;;35.96;25.09
54816;BME280;40715;55.752;37.884;2023-07-02T08:16:56;97543.13;;;36.03;25.56
54816;BME280;40715;55.752;37.884;2023-07-02T08:19:23;97530.16;;;35.98;25.40
54816;BME280;40715;55.752;37.884;2023-07-02T08:21:52;97543.06;;;35.98;25.34
54816;BME280;40715;55.752;37.884;2023-07-02T08:24:19;97522.78;;;35.99;25.15
54816;BME280;40715;55.752;37.884;2023-07-02T08:26:46;97545.53;;;35.99;25.25
54816;BME280;40715;55.752;37.884;2023-07-02T08:29:14;97528.59;;;36.02;25.42
54816;BME280;40715;55.752;37.884;2023-07-02T08:31:42;97525.34;;;36.05;25.21
54816;BME280;40715;55.752;37.884;2023-07-02T08:34:10;97516.47;;;36.15;25.21
54816;BME280;40715;55.752;37.884;2023-07-02T08:36:37;97530.00;;;36.22;24.79
54816;BME280;40715;55.752;37.884;2023-07-02T08:39:04;97525.06;;;36.24;25.08
54816;BME280;40715;55.752;37.884;2023-07-02T08:41:44;97528.84;;;36.35;24.87
54816;BME280;40715;55.752;37.884;2023-07-02T08:44:13;97517.22;;;36.10;24.89
54816;BME280;40715;55.752;37.884;2023-07-02T08:46:41;97528.84;;;35.84;24.68
54816;BME280;40715;55.752;37.884;2023-07-02T08:49:09;97532.69;;;35.54;24.70
54816;BME280;40715;55.752;37.884;2023-07-02T08:51:36;97534.38;;;35.26;24.88
54816;BME280;40715;55.752;37.884;2023-07-02T08:54:03;97527.06;;;35.03;24.67
54816;BME280;40715;55.752;37.884;2023-07-02T08:56:31;97549.72;;;34.86;24.71
54816;BME280;40715;55.752;37.884;2023-07-02T08:58:58;97538.22;;;34.61;24.78
54816;BME280;40715;55.752;37.884;2023-07-02T09:01:25;97549.66;;;34.46;24.85
54816;BME280;40715;55.752;37.884;2023-07-02T09:03:58;97531.84;;;34.31;24.95
54816;BME280;40715;55.752;37.884;2023-07-02T09:06:27;97530.72;;;34.09;24.92
54816;BME280;40715;55.752;37.884;2023-07-02T09:09:03;97525.50;;;33.95;24.98
54816;BME280;40715;55.752;37.884;2023-07-02T09:11:30;97533.66;;;33.83;24.98
54816;BME280;40715;55.752;37.884;2023-07-02T09:13:57;97526.06;;;33.74;25.25
54816;BME280;40715;55.752;37.884;2023-07-02T09:16:32;97526.38;;;33.65;25.40
54816;BME280;40715;55.752;37.884;2023-07-02T09:19:06;97520.06;;;33.65;25.39
54816;BME280;40715;55.752;37.884;2023-07-02T09:21:47;97533.00;;;33.58;25.26
54816;BME280;40715;55.752;37.884;2023-07-02T09:26:44;97529.28;;;33.40;25.28
54816;BME280;40715;55.752;37.884;2023-07-02T09:29:12;97528.06;;;33.24;25.70
54816;BME280;40715;55.752;37.884;2023-07-02T09:31:47;97534.84;;;33.15;25.55
54816;BME280;40715;55.752;37.884;2023-07-02T09:34:36;97531.72;;;32.99;25.45
54816;BME280;40715;55.752;37.884;2023-07-02T09:37:06;97528.56;;;32.84;25.44
54816;BME280;40715;55.752;37.884;2023-07-02T09:39:34;97524.53;;;32.68;25.67
54816;BME280;40715;55.752;37.884;2023-07-02T09:42:07;97532.84;;;32.55;25.60
54816;BME280;40715;55.752;37.884;2023-07-02T09:44:37;97529.66;;;32.39;25.95
54816;BME280;40715;55.752;37.884;2023-07-02T09:47:09;97529.94;;;32.31;25.55
54816;BME280;40715;55.752;37.884;2023-07-02T09:49:39;97534.84;;;32.22;25.81
54816;BME280;40715;55.752;37.884;2023-07-02T09:52:11;97527.38;;;32.17;25.89
54816;BME280;40715;55.752;37.884;2023-07-02T09:54:41;97517.78;;;32.08;25.56
54816;BME280;40715;55.752;37.884;2023-07-02T09:57:08;97518.44;;;32.04;26.00
54816;BME280;40715;55.752;37.884;2023-07-02T09:59:38;97527.13;;;31.94;25.78
54816;BME280;40715;55.752;37.884;2023-07-02T10:02:05;97534.91;;;31.90;25.80
54816;BME280;40715;55.752;37.884;2023-07-02T10:04:44;97536.59;;;31.91;25.64
54816;BME280;40715;55.752;37.884;2023-07-02T10:07:13;97530.63;;;31.76;25.68
54816;BME280;40715;55.752;37.884;2023-07-02T10:09:52;97533.84;;;31.66;25.80
54816;BME280;40715;55.752;37.884;2023-07-02T10:12:27;97525.72;;;31.59;25.97
54816;BME280;40715;55.752;37.884;2023-07-02T10:14:56;97521.19;;;31.46;26.08
54816;BME280;40715;55.752;37.884;2023-07-02T10:17:31;97521.63;;;31.43;25.85
54816;BME280;40715;55.752;37.884;2023-07-02T10:20:05;97530.25;;;31.40;26.29
54816;BME280;40715;55.752;37.884;2023-07-02T10:22:43;97518.72;;;31.38;26.09
54816;BME280;40715;55.752;37.884;2023-07-02T10:25:11;97529.03;;;31.29;26.44
54816;BME280;40715;55.752;37.884;2023-07-02T10:27:40;97521.53;;;31.25;26.36
54816;BME280;40715;55.752;37.884;2023-07-02T10:30:09;97530.97;;;31.22;26.22
54816;BME280;40715;55.752;37.884;2023-07-02T10:32:37;97531.59;;;31.24;26.79
54816;BME280;40715;55.752;37.884;2023-07-02T10:35:15;97528.00;;;31.30;26.80
54816;BME280;40715;55.752;37.884;2023-07-02T10:37:43;97529.09;;;31.23;26.76
54816;BME280;40715;55.752;37.884;2023-07-02T10:40:11;97518.69;;;31.13;26.15
54816;BME280;40715;55.752;37.884;2023-07-02T10:42:49;97527.88;;;31.19;25.87
54816;BME280;40715;55.752;37.884;2023-07-02T10:45:16;97519.53;;;31.07;26.30
54816;BME280;40715;55.752;37.884;2023-07-02T10:47:44;97528.78;;;31.06;26.36
54816;BME280;40715;55.752;37.884;2023-07-02T10:50:21;97542.94;;;31.14;26.48
54816;BME280;40715;55.752;37.884;2023-07-02T10:52:49;97530.84;;;31.04;26.54
54816;BME280;40715;55.752;37.884;2023-07-02T10:55:20;97542.34;;;30.99;26.23
54816;BME280;40715;55.752;37.884;2023-07-02T10:57:48;97534.63;;;30.96;26.15
54816;BME280;40715;55.752;37.884;2023-07-02T11:00:18;97536.34;;;30.90;26.36
54816;BME280;40715;55.752;37.884;2023-07-02T11:02:46;97532.97;;;30.88;26.10
54816;BME280;40715;55.752;37.884;2023-07-02T11:05:14;97543.84;;;30.88;26.13
54816;BME280;40715;55.752;37.884;2023-07-02T11:07:42;97536.56;;;30.82;26.47
54816;BME280;40715;55.752;37.884;2023-07-02T11:10:10;97539.28;;;30.82;26.58
54816;BME280;40715;55.752;37.884;2023-07-02T11:12:38;97545.56;;;30.83;26.45
54816;BME280;40715;55.752;37.884;2023-07-02T11:15:13;97559.56;;;30.79;26.28
54816;BME280;40715;55.752;37.884;2023-07-02T11:17:41;97577.13;;;30.77;26.41
54816;BME280;40715;55.752;37.884;2023-07-02T11:20:09;97574.84;;;30.74;26.67
54816;BME280;40715;55.752;37.884;2023-07-02T11:22:38;97567.56;;;30.74;26.52
54816;BME280;40715;55.752;37.884;2023-07-02T11:27:36;97579.69;;;30.72;26.42
54816;BME280;40715;55.752;37.884;2023-07-02T11:30:05;97562.34;;;30.73;26.33
54816;BME280;40715;55.752;37.884;2023-07-02T11:32:46;97556.84;;;30.86;26.50
54816;BME280;40715;55.752;37.884;2023-07-02T11:35:35;97570.81;;;31.10;25.89
54816;BME280;40715;55.752;37.884;2023-07-02T11:38:02;97563.38;;;31.24;25.92
54816;BME280;40715;55.752;37.884;2023-07-02T11:40:29;97562.47;;;31.37;26.10
54816;BME280;40715;55.752;37.884;2023-07-02T11:42:56;97553.38;;;31.49;25.52
54816;BME280;40715;55.752;37.884;2023-07-02T11:45:23;97554.16;;;31.63;25.41
54816;BME280;40715;55.752;37.884;2023-07-02T11:48:08;97555.38;;;31.74;25.80
54816;BME280;40715;55.752;37.884;2023-07-02T11:50:47;97556.16;;;31.81;25.75
54816;BME280;40715;55.752;37.884;2023-07-02T11:53:14;97568.88;;;31.88;25.27
54816;BME280;40715;55.752;37.884;2023-07-02T11:55:41;97573.22;;;31.95;25.34
54816;BME280;40715;55.752;37.884;2023-07-02T11:58:11;97548.84;;;32.00;25.42
54816;BME280;40715;55.752;37.884;2023-07-02T12:00:38;97536.38;;;31.93;25.08
54816;BME280;40715;55.752;37.884;2023-07-02T12:03:06;97568.47;;;32.09;25.07
54816;BME280;40715;55.752;37.884;2023-07-02T12:05:33;97559.03;;;32.12;24.78
54816;BME280;40715;55.752;37.884;2023-07-02T12:08:01;97563.22;;;32.14;25.06
54816;BME280;40715;55.752;37.884;2023-07-02T12:10:29;97559.81;;;32.19;24.58
54816;BME280;40715;55.752;37.884;2023-07-02T12:12:56;97552.66;;;32.25;24.71
54816;BME280;40715;55.752;37.884;2023-07-02T12:15:23;97558.50;;;32.28;24.34
54816;BME280;40715;55.752;37.884;2023-07-02T12:17:50;97545.91;;;32.27;24.22
54816;BME280;40715;55.752;37.884;2023-07-02T12:20:17;97556.38;;;32.30;24.59
54816;BME280;40715;55.752;37.884;2023-07-02T12:22:44;97551.91;;;32.36;24.17
54816;BME280;40715;55.752;37.884;2023-07-02T12:25:11;97556.69;;;32.41;23.85
54816;BME280;40715;55.752;37.884;2023-07-02T12:27:39;97556.84;;;32.46;23.92
54816;BME280;40715;55.752;37.884;2023-07-02T12:30:06;97558.06;;;32.50;24.20
54816;BME280;40715;55.752;37.884;2023-07-02T12:32:35;97560.09;;;32.55;24.14
54816;BME280;40715;55.752;37.884;2023-07-02T12:35:02;97556.09;;;32.57;23.68
54816;BME280;40715;55.752;37.884;2023-07-02T12:37:31;97553.59;;;32.56;23.72
54816;BME280;40715;55.752;37.884;2023-07-02T12:39:58;97557.53;;;32.60;23.66
54816;BME280;40715;55.752;37.884;2023-07-02T12:42:26;97558.59;;;32.59;23.74
54816;BME280;40715;55.752;37.884;2023-07-02T12:44:53;97559.00;;;32.62;23.26
54816;BME280;40715;55.752;37.884;2023-07-02T12:47:20;97557.53;;;32.60;23.70
54816;BME280;40715;55.752;37.884;2023-07-02T12:49:51;97555.28;;;32.57;23.39
54816;BME280;40715;55.752;37.884;2023-07-02T12:52:18;97560.25;;;32.60;23.86
54816;BME280;40715;55.752;37.884;2023-07-02T12:54:46;97577.22;;;32.62;23.44
54816;BME280;40715;55.752;37.884;2023-07-02T12:57:13;97556.19;;;32.69;23.40
54816;BME280;40715;55.752;37.884;2023-07-02T12:59:42;97559.78;;;32.69;23.43
54816;BME280;40715;55.752;37.884;2023-07-02T13:02:31;97552.78;;;32.74;23.51
54816;BME280;40715;55.752;37.884;2023-07-02T13:04:59;97563.69;;;32.74;23.41